createdAt,value
2023-03-21T00:00:13.094Z,10.47
2023-03-21T00:03:16.465Z,10.39
2023-03-21T00:06:19.213Z,10.22
2023-03-21T00:09:22.241Z,10.19
2023-03-21T00:12:24.997Z,10.17
2023-03-21T00:15:39.930Z,10.21
2023-03-21T00:18:47.459Z,10.17
2023-03-21T00:25:15.417Z,10.11
2023-03-21T00:28:18.282Z,10.04
2023-03-21T00:31:21.529Z,10.09
2023-03-21T00:34:36.501Z,10.21
2023-03-21T00:37:46.452Z,10.31
2023-03-21T00:40:49.699Z,10.24
2023-03-21T00:43:55.714Z,10.31
2023-03-21T00:47:07.489Z,10.39
2023-03-21T00:50:12.046Z,10.18
2023-03-21T00:53:15.665Z,10.03
2023-03-21T00:56:18.373Z,10.05
2023-03-21T00:59:21.620Z,10.13
2023-03-21T01:02:26.861Z,10.22
2023-03-21T01:05:49.477Z,10.29
2023-03-21T01:08:53.519Z,10.25
2023-03-21T01:11:56.512Z,10.25
2023-03-21T01:14:59.220Z,10.11
2023-03-21T01:18:02.457Z,10.04
2023-03-21T01:21:09.352Z,10.06
2023-03-21T01:24:12.231Z,10.02
2023-03-21T01:27:16.121Z,9.90
2023-03-21T01:30:22.755Z,9.90
2023-03-21T01:33:26.687Z,9.93
2023-03-21T01:36:29.706Z,10.01
2023-03-21T01:39:37.869Z,10.02
2023-03-21T01:42:42.423Z,10.10
2023-03-21T01:46:10.479Z,10.19
2023-03-21T01:49:36.172Z,10.28
2023-03-21T01:52:56.324Z,10.35
2023-03-21T01:56:12.486Z,10.39
2023-03-21T01:59:51.449Z,10.41
2023-03-21T02:03:23.684Z,10.44
2023-03-21T02:06:49.513Z,10.53
2023-03-21T02:10:22.119Z,10.62
2023-03-21T02:13:28.577Z,10.65
2023-03-21T02:16:47.692Z,10.67
2023-03-21T02:20:29.785Z,10.66
2023-03-21T02:23:59.448Z,10.66
2023-03-21T02:27:11.927Z,10.66
2023-03-21T02:30:37.488Z,10.65
2023-03-21T02:34:23.462Z,10.66
2023-03-21T02:37:38.871Z,10.65
2023-03-21T02:41:10.092Z,10.67
2023-03-21T02:44:30.077Z,10.61
2023-03-21T02:47:38.045Z,10.62
2023-03-21T02:50:52.793Z,10.62
2023-03-21T02:54:26.435Z,10.64
2023-03-21T02:57:33.851Z,10.64
2023-03-21T03:00:44.890Z,10.63
2023-03-21T03:03:52.344Z,10.67
2023-03-21T03:07:13.103Z,10.67
2023-03-21T03:10:51.332Z,10.60
2023-03-21T03:14:46.816Z,10.63
2023-03-21T03:18:05.052Z,10.62
2023-03-21T03:21:33.803Z,10.54
2023-03-21T03:25:21.407Z,10.53
2023-03-21T03:28:35.669Z,10.54
2023-03-21T03:31:46.288Z,10.57
2023-03-21T03:34:56.385Z,10.57
2023-03-21T03:38:07.105Z,10.53
2023-03-21T03:41:19.507Z,10.48
2023-03-21T03:44:28.591Z,10.42
2023-03-21T03:47:56.410Z,10.36
2023-03-21T03:51:16.360Z,10.31
2023-03-21T03:54:42.972Z,10.24
2023-03-21T03:57:46.014Z,10.20
2023-03-21T04:00:49.537Z,10.10
2023-03-21T04:04:03.512Z,10.04
2023-03-21T04:07:13.817Z,9.91
2023-03-21T04:10:18.400Z,9.82
2023-03-21T04:13:21.868Z,9.77
2023-03-21T04:16:46.608Z,9.66
2023-03-21T04:19:55.521Z,9.57
2023-03-21T04:23:00.616Z,9.59
2023-03-21T04:26:04.713Z,9.65
2023-03-21T04:29:12.404Z,9.59
2023-03-21T04:32:54.168Z,9.56
2023-03-21T04:35:59.378Z,9.60
2023-03-21T04:39:12.499Z,9.60
2023-03-21T04:42:18.640Z,9.68
2023-03-21T04:45:21.384Z,9.74
2023-03-21T04:48:24.823Z,9.70
2023-03-21T04:51:28.055Z,9.74
2023-03-21T04:54:32.503Z,9.82
2023-03-21T04:57:35.473Z,9.90
2023-03-21T05:00:39.219Z,9.86
2023-03-21T05:03:42.296Z,9.76
2023-03-21T05:06:46.060Z,9.66
2023-03-21T05:09:48.937Z,9.60
2023-03-21T05:12:52.904Z,9.55
2023-03-21T05:15:56.085Z,9.46
2023-03-21T05:19:03.975Z,9.47
2023-03-21T05:22:12.225Z,9.50
2023-03-21T05:25:18.320Z,9.59
2023-03-21T05:28:41.407Z,9.53
2023-03-21T05:31:46.767Z,9.56
2023-03-21T05:34:50.992Z,9.67
2023-03-21T05:37:57.886Z,9.56
2023-03-21T05:41:02.795Z,9.60
2023-03-21T05:44:07.669Z,9.69
2023-03-21T05:47:13.691Z,9.84
2023-03-21T05:50:20.538Z,9.88
2023-03-21T05:53:36.873Z,9.97
2023-03-21T05:56:39.695Z,10.03
2023-03-21T05:59:46.201Z,10.15
2023-03-21T06:02:51.073Z,10.18
2023-03-21T06:06:19.942Z,10.37
2023-03-21T06:09:35.490Z,10.53
2023-03-21T06:12:39.830Z,10.71
2023-03-21T06:15:55.952Z,10.80
2023-03-21T06:19:01.339Z,10.98
2023-03-21T06:22:21.512Z,11.04
2023-03-21T06:25:25.793Z,11.20
2023-03-21T06:28:29.721Z,11.13
2023-03-21T06:31:32.875Z,11.25
2023-03-21T06:34:39.545Z,11.39
2023-03-21T06:37:43.610Z,11.60
2023-03-21T06:40:47.574Z,11.71
2023-03-21T06:43:51.168Z,11.81
2023-03-21T06:46:55.527Z,11.97
2023-03-21T06:49:58.630Z,12.14
2023-03-21T06:53:03.657Z,12.22
2023-03-21T06:56:12.908Z,12.32
2023-03-21T06:59:18.421Z,12.43
2023-03-21T07:02:34.783Z,12.43
2023-03-21T07:05:50.994Z,12.55
2023-03-21T07:08:55.383Z,12.68
2023-03-21T07:11:59.216Z,12.87
2023-03-21T07:15:11.863Z,13.06
2023-03-21T07:18:16.598Z,13.01
2023-03-21T07:21:20.448Z,13.08
2023-03-21T07:24:23.527Z,12.92
2023-03-21T07:27:26.425Z,13.09
2023-03-21T07:30:29.217Z,13.34
2023-03-21T07:33:33.208Z,13.36
2023-03-21T07:36:37.896Z,13.54
2023-03-21T07:39:43.500Z,13.42
2023-03-21T07:42:49.078Z,13.38
2023-03-21T07:45:59.433Z,13.34
2023-03-21T07:49:02.806Z,13.61
2023-03-21T07:52:07.940Z,13.44
2023-03-21T07:55:11.672Z,13.48
2023-03-21T07:58:14.409Z,13.50
2023-03-21T08:01:17.400Z,13.72
2023-03-21T08:04:20.304Z,14.43
2023-03-21T08:07:23.187Z,14.65
2023-03-21T08:10:26.328Z,14.51
2023-03-21T08:13:29.476Z,14.59
2023-03-21T08:16:32.292Z,14.92
2023-03-21T08:19:35.781Z,14.75
2023-03-21T08:22:38.824Z,14.67
2023-03-21T08:25:41.552Z,14.55
2023-03-21T08:28:45.409Z,14.80
2023-03-21T08:31:48.206Z,14.98
2023-03-21T08:34:51.176Z,15.10
2023-03-21T08:37:53.954Z,15.29
2023-03-21T08:40:58.595Z,15.43
2023-03-21T08:44:05.038Z,15.57
2023-03-21T08:47:08.353Z,15.51
2023-03-21T08:50:14.557Z,15.84
2023-03-21T08:53:17.272Z,15.78
2023-03-21T08:56:20.105Z,16.01
2023-03-21T08:59:22.948Z,15.70
2023-03-21T09:02:25.971Z,16.02
2023-03-21T09:05:29.045Z,15.95
2023-03-21T09:08:31.911Z,16.01
2023-03-21T09:11:35.520Z,16.13
2023-03-21T09:14:38.809Z,16.06
2023-03-21T09:17:49.073Z,16.00
2023-03-21T09:20:52.052Z,15.78
2023-03-21T09:23:59.564Z,15.82
2023-03-21T09:27:03.329Z,16.27
2023-03-21T09:30:07.965Z,16.49
2023-03-21T09:33:13.216Z,16.30
2023-03-21T09:36:17.178Z,15.88
2023-03-21T09:39:23.320Z,15.80
2023-03-21T09:42:45.125Z,15.60
2023-03-21T09:45:59.944Z,15.51
2023-03-21T09:49:10.027Z,15.66
2023-03-21T09:52:38.609Z,15.81
2023-03-21T09:55:43.125Z,15.94
2023-03-21T09:58:53.526Z,16.36
2023-03-21T10:01:58.805Z,17.12
2023-03-21T10:05:06.812Z,16.87
2023-03-21T10:08:36.570Z,17.59
2023-03-21T10:11:47.988Z,17.91
2023-03-21T10:14:54.972Z,17.77
2023-03-21T10:18:23.624Z,17.89
2023-03-21T10:21:58.654Z,17.73
2023-03-21T10:24:52.148Z,17.12
2023-03-21T10:27:56.580Z,16.75
2023-03-21T10:31:04.599Z,17.03
2023-03-21T10:34:32.565Z,17.71
2023-03-21T10:37:36.500Z,17.59
2023-03-21T10:40:39.270Z,17.04
2023-03-21T10:43:44.982Z,17.62
2023-03-21T10:46:56.548Z,17.27
2023-03-21T10:50:10.106Z,17.67
2023-03-21T10:53:40.146Z,18.17
2023-03-21T10:57:01.020Z,17.75
2023-03-21T11:00:15.928Z,18.21
2023-03-21T11:03:23.522Z,17.53
2023-03-21T11:06:32.641Z,17.90
2023-03-21T11:09:56.623Z,18.31
2023-03-21T11:13:05.826Z,17.86
2023-03-21T11:16:23.078Z,17.43
2023-03-21T11:19:33.945Z,17.53
2023-03-21T11:22:43.650Z,17.42
2023-03-21T11:25:50.699Z,17.67
2023-03-21T11:28:55.140Z,17.91
2023-03-21T11:32:02.242Z,18.01
2023-03-21T11:35:14.226Z,17.61
2023-03-21T11:38:27.490Z,18.04
2023-03-21T11:41:33.449Z,17.87
2023-03-21T11:44:44.316Z,18.29
2023-03-21T11:47:49.662Z,18.41
2023-03-21T11:51:01.198Z,18.49
2023-03-21T11:54:12.706Z,18.65
2023-03-21T11:57:30.970Z,18.19
2023-03-21T12:00:43.527Z,18.46
2023-03-21T12:03:49.094Z,18.04
2023-03-21T12:07:00.770Z,18.08
2023-03-21T12:10:12.411Z,18.10
2023-03-21T12:13:36.607Z,18.17
2023-03-21T12:16:55.010Z,18.43
2023-03-21T12:19:57.708Z,18.15
2023-03-21T12:23:19.237Z,18.19
2023-03-21T12:26:32.636Z,18.58
2023-03-21T12:30:02.680Z,17.80
2023-03-21T12:33:31.341Z,17.80
2023-03-21T12:37:04.830Z,17.64
2023-03-21T12:40:22.430Z,18.02
2023-03-21T12:43:41.443Z,18.02
2023-03-21T12:46:51.224Z,17.82
2023-03-21T12:50:03.705Z,17.39
2023-03-21T12:53:37.948Z,17.26
2023-03-21T12:56:52.665Z,17.41
2023-03-21T13:00:01.506Z,17.48
2023-03-21T13:03:22.854Z,17.95
2023-03-21T13:06:30.348Z,18.32
2023-03-21T13:09:43.493Z,18.33
2023-03-21T13:13:10.927Z,18.62
2023-03-21T13:16:24.765Z,18.58
2023-03-21T13:19:36.740Z,18.72
2023-03-21T13:22:39.702Z,18.55
2023-03-21T13:25:49.290Z,18.51
2023-03-21T13:28:52.764Z,18.30
2023-03-21T13:32:07.541Z,17.66
2023-03-21T13:35:16.523Z,17.45
2023-03-21T13:38:30.316Z,17.37
2023-03-21T13:41:39.156Z,17.14
2023-03-21T13:44:50.317Z,17.01
2023-03-21T13:48:25.766Z,17.02
2023-03-21T13:51:28.848Z,17.14
2023-03-21T13:54:54.163Z,17.27
2023-03-21T13:57:57.310Z,17.69
2023-03-21T14:01:29.075Z,17.87
2023-03-21T14:04:43.219Z,18.00
2023-03-21T14:08:12.287Z,17.67
2023-03-21T14:11:19.651Z,17.88
2023-03-21T14:14:26.800Z,18.20
2023-03-21T14:17:34.944Z,17.90
2023-03-21T14:20:38.916Z,17.70
2023-03-21T14:23:42.014Z,17.07
2023-03-21T14:26:49.814Z,17.00
2023-03-21T14:29:53.568Z,16.91
2023-03-21T14:32:59.734Z,16.82
2023-03-21T14:36:15.691Z,16.73
2023-03-21T14:39:24.206Z,16.78
2023-03-21T14:42:27.357Z,17.17
2023-03-21T14:45:33.625Z,17.42
2023-03-21T14:48:36.298Z,17.36
2023-03-21T14:51:41.986Z,17.28
2023-03-21T14:54:47.323Z,17.10
2023-03-21T14:57:50.439Z,17.01
2023-03-21T15:00:57.063Z,17.09
2023-03-21T15:04:03.109Z,16.95
2023-03-21T15:07:07.947Z,17.00
2023-03-21T15:10:18.184Z,16.90
2023-03-21T15:13:25.789Z,16.95
2023-03-21T15:16:29.683Z,17.09
2023-03-21T15:19:37.721Z,17.08
2023-03-21T15:22:46.152Z,17.01
2023-03-21T15:25:48.917Z,17.02
2023-03-21T15:28:57.681Z,17.02
2023-03-21T15:32:08.021Z,16.98
2023-03-21T15:35:17.057Z,17.00
2023-03-21T15:38:53.402Z,17.02
2023-03-21T15:42:04.155Z,16.84
2023-03-21T15:45:23.951Z,16.82
2023-03-21T15:48:28.637Z,16.83
2023-03-21T15:51:32.837Z,16.71
2023-03-21T15:54:43.600Z,16.56
2023-03-21T15:57:47.604Z,16.43
2023-03-21T16:00:55.859Z,16.28
2023-03-21T16:04:05.910Z,16.10
2023-03-21T16:07:17.185Z,16.05
2023-03-21T16:10:33.827Z,15.97
2023-03-21T16:13:37.315Z,15.81
2023-03-21T16:16:40.300Z,15.62
2023-03-21T16:19:44.142Z,15.55
2023-03-21T16:22:47.900Z,15.45
2023-03-21T16:25:56.094Z,15.26
2023-03-21T16:29:00.357Z,15.13
2023-03-21T16:32:06.385Z,15.09
2023-03-21T16:35:09.679Z,14.97
2023-03-21T16:38:13.961Z,14.85
2023-03-21T16:41:17.249Z,14.70
2023-03-21T16:44:20.764Z,14.50
2023-03-21T16:47:24.349Z,14.38
2023-03-21T16:50:34.893Z,14.32
2023-03-21T16:53:37.698Z,14.13
2023-03-21T16:56:44.982Z,14.02
2023-03-21T16:59:48.748Z,13.97
2023-03-21T17:02:53.628Z,13.84
2023-03-21T17:05:56.379Z,13.83
2023-03-21T17:08:59.730Z,13.69
2023-03-21T17:12:02.602Z,13.55
2023-03-21T17:15:06.286Z,13.46
2023-03-21T17:18:10.526Z,13.34
2023-03-21T17:21:16.490Z,13.24
2023-03-21T17:24:19.350Z,13.20
2023-03-21T17:27:22.098Z,12.97
2023-03-21T17:30:31.554Z,12.77
2023-03-21T17:33:34.374Z,12.71
2023-03-21T17:36:41.651Z,12.58
2023-03-21T17:39:45.440Z,12.46
2023-03-21T17:42:49.191Z,12.38
2023-03-21T17:45:52.353Z,12.35
2023-03-21T17:48:55.796Z,12.24
2023-03-21T17:51:58.861Z,12.02
2023-03-21T17:55:02.333Z,11.88
2023-03-21T17:58:06.371Z,11.78
2023-03-21T18:01:09.199Z,11.59
2023-03-21T18:04:11.988Z,11.44
2023-03-21T18:07:24.491Z,11.33
2023-03-21T18:10:38.784Z,11.27
2023-03-21T18:13:43.391Z,11.19
2023-03-21T18:16:47.707Z,11.12
2023-03-21T18:19:50.710Z,11.09
2023-03-21T18:22:55.575Z,11.01
2023-03-21T18:25:59.542Z,11.07
2023-03-21T18:32:29.140Z,11.21
2023-03-21T18:35:32.334Z,11.20
2023-03-21T18:38:37.221Z,11.20
2023-03-21T18:41:40.548Z,11.11
2023-03-21T18:44:47.002Z,10.99
2023-03-21T18:47:50.458Z,11.02
2023-03-21T18:50:53.536Z,11.06
2023-03-21T18:53:57.914Z,11.05
2023-03-21T19:00:26.016Z,10.81
2023-03-21T19:03:36.781Z,10.69
2023-03-21T19:06:40.350Z,10.57
2023-03-21T19:10:05.240Z,10.44
2023-03-21T19:13:08.039Z,10.34
2023-03-21T19:16:11.682Z,10.21
2023-03-21T19:19:18.638Z,10.11
2023-03-21T19:22:22.063Z,10.12
2023-03-21T19:25:24.952Z,10.16
2023-03-21T19:28:28.208Z,10.14
2023-03-21T19:31:31.582Z,10.00
2023-03-21T19:34:34.844Z,9.94
2023-03-21T19:37:37.835Z,9.90
2023-03-21T19:40:42.113Z,9.76
2023-03-21T19:43:54.121Z,9.72
2023-03-21T19:46:58.461Z,9.80
2023-03-21T19:53:24.402Z,9.67
2023-03-21T19:56:28.020Z,9.62
2023-03-21T19:59:32.236Z,9.50
2023-03-21T20:02:36.760Z,9.54
2023-03-21T20:05:41.274Z,9.54
2023-03-21T20:12:07.684Z,9.44
2023-03-21T20:15:17.656Z,9.44
2023-03-21T20:18:24.177Z,9.40
2023-03-21T20:21:34.883Z,9.22
2023-03-21T20:24:45.941Z,9.08
2023-03-21T20:28:06.511Z,9.09
2023-03-21T20:31:15.235Z,9.11
2023-03-21T20:34:18.324Z,9.15
2023-03-21T20:37:21.069Z,9.15
2023-03-21T20:40:24.324Z,9.22
2023-03-21T20:46:51.453Z,9.16
2023-03-21T20:49:56.961Z,9.14
2023-03-21T20:53:07.212Z,9.03
2023-03-21T20:56:10.412Z,8.90
2023-03-21T20:59:20.964Z,8.92
2023-03-21T21:02:28.371Z,9.08
2023-03-21T21:05:34.827Z,8.96
2023-03-21T21:08:39.461Z,8.81
2023-03-21T21:15:08.374Z,8.92
2023-03-21T21:18:12.440Z,8.98
2023-03-21T21:21:17.308Z,9.05
2023-03-21T21:24:20.454Z,9.24
2023-03-21T21:27:23.455Z,9.27
2023-03-21T21:30:26.180Z,9.30
2023-03-21T21:33:29.369Z,9.49
2023-03-21T21:36:32.132Z,9.61
2023-03-21T21:39:38.705Z,9.75
2023-03-21T21:42:43.838Z,9.74
2023-03-21T21:45:48.299Z,9.66
2023-03-21T21:48:51.720Z,9.57
2023-03-21T21:51:56.376Z,9.32
2023-03-21T21:55:02.274Z,9.18
2023-03-21T21:58:08.506Z,9.02
2023-03-21T22:01:11.278Z,8.82
2023-03-21T22:04:15.018Z,8.87
2023-03-21T22:07:17.800Z,8.91
2023-03-21T22:10:27.632Z,9.05
2023-03-21T22:13:30.406Z,9.12
2023-03-21T22:16:33.163Z,9.18
2023-03-21T22:19:37.104Z,9.06
2023-03-21T22:22:41.995Z,9.05
2023-03-21T22:25:50.558Z,9.13
2023-03-21T22:28:53.603Z,9.17
2023-03-21T22:31:56.766Z,8.99
2023-03-21T22:35:02.431Z,8.73
2023-03-21T22:38:05.599Z,8.72
2023-03-21T22:41:08.328Z,8.58
2023-03-21T22:44:11.318Z,8.42
2023-03-21T22:47:14.024Z,8.41
2023-03-21T22:50:16.834Z,8.35
2023-03-21T22:53:19.492Z,8.42
2023-03-21T22:56:22.253Z,8.39
2023-03-21T22:59:25.754Z,8.44
2023-03-21T23:02:28.492Z,8.46
2023-03-21T23:05:31.365Z,8.44
2023-03-21T23:08:34.225Z,8.48
2023-03-21T23:11:37.869Z,8.41
2023-03-21T23:14:41.056Z,8.42
2023-03-21T23:17:44.322Z,8.53
2023-03-21T23:20:49.871Z,8.54
2023-03-21T23:23:53.106Z,8.60
2023-03-21T23:26:55.996Z,8.57
2023-03-21T23:29:58.751Z,8.31
2023-03-21T23:33:01.498Z,8.19
2023-03-21T23:36:21.349Z,8.12
2023-03-21T23:39:24.646Z,7.94
2023-03-21T23:42:29.542Z,7.98
2023-03-21T23:45:33.049Z,8.00
2023-03-21T23:48:36.078Z,7.93
2023-03-21T23:51:39.268Z,7.92
2023-03-21T23:54:42.050Z,7.86
2023-03-21T23:57:44.769Z,7.69
